Grover, CO (80729)

2:20 PM MST on February 28, 2015 (GMT -0700)
Rd 106&83 - 9 miles NE of Briggsdale | Change Station
CLOSE
Current Station
Personal Weather Station
Location: Briggsdale, CO
Elevation: 5038 ft
Nearby Weather Stations

Elev 5038 ft 40.76 °N, 104.28 °W | Updated 5 minutes ago

Partly Cloudy
Partly Cloudy
26.7 °F
Feels Like 17 °F
N
10.0
Wind Variable Wind from ENE
Gusts 11.0 mph

Today
High -- | Low -- °F
--% Chance of Precip.
Yesterday
High -- | Low -- °F
Precip. -- in
6:32 AM 5:46 PM
Waxing Gibbous, 80% visible
Pressure 29.96 in
Visibility 10.0 miles
Clouds Scattered Clouds 2700 ft
Windchill 17 °F
Dew Point 16 °F
Humidity 65%
Rainfall 0.00 in
Snow Depth Not available.
UV 3 out of 12
Pollen .50 out of 12
Air Quality Not available.
Flu Activity Not available.
METAR K82V 282115Z AUTO 04009KT 10SM SCT027 M03/M10 A2996 RMK AO2

More Conditions Fewer Conditions

Pressure 29.96 in
Visibility 10.0 miles
Clouds Scattered Clouds 2700 ft
Windchill 17 °F
Dew Point 16 °F
Humidity 65%
Rainfall 0.00 in
Snow Depth Not available.
UV 3 out of 12
Pollen .50 out of 12
Air Quality Not available.
Flu Activity Not available.
METAR K82V 282115Z AUTO 04009KT 10SM SCT027 M03/M10 A2996 RMK AO2

More Conditions Fewer Conditions

10-Day Weather Forecast

Almanac

Astronomy

Feb. 28, 2015 Rise Set
Actual Time
Civil Twilight
Nautical Twilight
Astronomical Twilight
Moon
Length of Visible Light
Length of Day
Tomorrow will be .
, % of the Moon is Illuminated

Today's Extremes

State Highs State Lows

Community

WunderPhotos

Upload Photos

1,801,152 photos uploaded!

WunderBlogs® & News

Nearby

Air Quality

  Air Quality AQ Index Pollutant
Not available.

Snow Depth

Station Depth Elevation

Earthquake Activity

City Distance Mag. Time & Date
Minimum magnitude displayed is 2.5.

Coastal Water Temperatures

Place Temperature

Nearby Weather Stations